Time;durP1;ratioP1;P1;durP2;ratioP2;P2;SDS_P1;SDS_P2;PMS_P1;PMS_P2;Temp;Humidity;BMP_temperature;BMP_pressure;BME280_temperature;BME280_humidity;BME280_pressure;Samples;Min_cycle;Max_cycle;Signal;HPM_P1;HPM_P2
2023/10/22 00:02:16;;;;;;;1.52;0.80;;;23.30;60.00;;;;;;4921358;28;89784;-89
2023/10/22 00:04:41;;;;;;;3.65;1.52;;;23.30;60.00;;;;;;4935123;28;90591;-86
2023/10/22 00:07:07;;;;;;;1.95;1.30;;;23.30;60.00;;;;;;4921741;28;87870;-90
2023/10/22 00:09:33;;;;;;;2.10;1.40;;;23.30;60.00;;;;;;4936538;28;89660;-88
2023/10/22 00:11:59;;;;;;;2.47;1.20;;;23.30;59.90;;;;;;4938051;28;87995;-89
2023/10/22 00:14:25;;;;;;;1.77;0.95;;;23.30;59.90;;;;;;4858143;28;1486757;-90
2023/10/22 00:16:51;;;;;;;1.90;1.00;;;23.30;59.80;;;;;;4925707;28;87807;-88
2023/10/22 00:19:16;;;;;;;2.67;1.20;;;23.30;59.90;;;;;;4936922;28;87798;-90
2023/10/22 00:21:42;;;;;;;2.05;1.20;;;23.20;59.90;;;;;;4935400;28;92591;-89
2023/10/22 00:24:08;;;;;;;1.80;1.33;;;23.20;59.90;;;;;;4923030;28;89623;-88
2023/10/22 00:26:34;;;;;;;1.98;1.27;;;23.20;59.80;;;;;;4924153;28;87594;-87
2023/10/22 00:29:00;;;;;;;2.50;1.30;;;23.20;59.80;;;;;;4923534;28;86942;-89
2023/10/22 00:31:25;;;;;;;2.55;1.10;;;23.20;60.00;;;;;;4922531;28;89237;-90
2023/10/22 00:33:51;;;;;;;1.77;1.10;;;23.20;60.00;;;;;;4939464;28;88886;-91
2023/10/22 00:36:17;;;;;;;2.15;0.95;;;23.20;60.00;;;;;;4921517;28;87008;-90
2023/10/22 00:38:42;;;;;;;1.83;1.10;;;23.20;59.90;;;;;;4929003;28;88399;-88
2023/10/22 00:41:08;;;;;;;1.88;1.10;;;23.20;59.90;;;;;;4925232;28;89060;-89
2023/10/22 00:43:34;;;;;;;2.60;1.65;;;23.20;59.90;;;;;;4938966;28;91809;-87
2023/10/22 00:46:00;;;;;;;3.30;1.45;;;23.10;59.90;;;;;;4925498;28;87863;-87
2023/10/22 00:48:26;;;;;;;1.60;1.05;;;23.20;59.90;;;;;;4942984;28;87609;-87
2023/10/22 00:50:52;;;;;;;1.85;1.27;;;23.10;60.00;;;;;;4921505;28;88773;-87
2023/10/22 00:53:19;;;;;;;1.40;1.10;;;23.20;59.90;;;;;;4938652;28;89244;-87
2023/10/22 00:55:46;;;;;;;1.45;0.90;;;23.20;59.80;;;;;;4924974;28;87202;-89
2023/10/22 00:58:18;;;;;;;1.85;1.17;;;23.10;59.80;;;;;;4922063;28;87561;-89
2023/10/22 01:00:45;;;;;;;1.55;1.20;;;23.10;59.90;;;;;;4917917;28;88651;-90
2023/10/22 01:03:11;;;;;;;0.95;0.65;;;23.10;60.00;;;;;;4941122;28;87663;-89
2023/10/22 01:05:37;;;;;;;1.95;1.00;;;23.10;59.90;;;;;;4923630;28;87704;-88
2023/10/22 01:08:08;;;;;;;1.17;0.82;;;23.10;60.00;;;;;;4944506;28;87835;-90
2023/10/22 01:10:33;;;;;;;1.10;1.00;;;23.10;59.90;;;;;;4931129;28;92699;-87
2023/10/22 01:13:00;;;;;;;2.53;1.45;;;23.10;60.00;;;;;;4920667;28;88270;-87
2023/10/22 01:15:26;;;;;;;1.80;1.15;;;23.10;60.00;;;;;;4926151;28;88248;-87
2023/10/22 01:17:52;;;;;;;2.10;1.33;;;23.10;60.00;;;;;;4922704;28;89571;-91
2023/10/22 01:20:18;;;;;;;1.88;1.13;;;23.00;60.00;;;;;;4937210;28;90913;-90
2023/10/22 01:22:43;;;;;;;2.67;1.00;;;23.00;60.20;;;;;;4937092;28;93195;-89
2023/10/22 01:25:10;;;;;;;1.75;1.13;;;23.00;60.10;;;;;;4935758;28;87761;-90
2023/10/22 01:27:36;;;;;;;1.80;1.10;;;23.00;60.10;;;;;;4922575;28;88274;-87
2023/10/22 01:30:03;;;;;;;1.48;0.90;;;23.00;60.00;;;;;;4938523;28;89160;-91
2023/10/22 01:32:34;;;;;;;1.67;0.93;;;23.00;59.90;;;;;;4940638;28;88886;-90
2023/10/22 01:35:00;;;;;;;1.80;1.17;;;23.00;60.20;;;;;;4924407;28;88798;-89
2023/10/22 01:37:26;;;;;;;1.77;0.93;;;23.00;60.20;;;;;;4922172;28;89092;-88
2023/10/22 01:39:54;;;;;;;3.15;1.10;;;23.00;60.20;;;;;;4933308;28;89944;-89
2023/10/22 01:42:20;;;;;;;1.45;0.93;;;23.00;60.10;;;;;;4922848;28;87974;-88
2023/10/22 01:44:46;;;;;;;2.28;0.98;;;23.00;60.10;;;;;;4941719;28;87624;-87
2023/10/22 01:47:11;;;;;;;1.65;0.98;;;23.00;60.20;;;;;;4922712;28;87667;-90
2023/10/22 01:49:38;;;;;;;1.80;1.10;;;23.00;60.10;;;;;;4925086;28;88648;-90
2023/10/22 01:52:04;;;;;;;1.83;1.00;;;23.00;60.10;;;;;;4940170;28;88006;-89
2023/10/22 01:54:32;;;;;;;1.30;0.88;;;23.00;60.10;;;;;;4922770;28;88602;-89
2023/10/22 01:56:57;;;;;;;1.90;1.08;;;23.00;60.20;;;;;;4941929;28;88465;-88
2023/10/22 01:59:23;;;;;;;1.33;0.80;;;23.00;60.20;;;;;;4926714;28;90024;-88
2023/10/22 02:01:49;;;;;;;1.00;0.60;;;22.90;60.00;;;;;;4924767;28;88864;-89
2023/10/22 02:04:14;;;;;;;1.83;1.00;;;23.00;60.30;;;;;;4942445;28;87282;-89
2023/10/22 02:06:40;;;;;;;0.98;0.80;;;22.90;60.10;;;;;;4923644;28;87345;-89
2023/10/22 02:09:06;;;;;;;1.55;1.00;;;22.90;60.00;;;;;;4923849;28;88953;-88
2023/10/22 02:11:32;;;;;;;2.10;0.80;;;22.90;60.10;;;;;;4924552;28;88388;-87
2023/10/22 02:14:00;;;;;;;0.88;0.50;;;22.90;60.20;;;;;;4917596;28;88135;-89
2023/10/22 02:16:26;;;;;;;1.75;1.10;;;22.90;60.30;;;;;;4915759;28;88919;-87
2023/10/22 02:18:52;;;;;;;1.80;0.88;;;22.90;60.20;;;;;;4922753;28;89107;-87
2023/10/22 02:21:21;;;;;;;1.35;0.90;;;22.90;60.40;;;;;;4934627;28;91360;-87
2023/10/22 02:23:46;;;;;;;;;;;22.90;60.10;;;;;;4917893;28;88370;-87
2023/10/22 02:26:12;;;;;;;2.03;1.15;;;22.80;60.80;;;;;;4934002;28;89035;-87
2023/10/22 02:28:39;;;;;;;0.93;0.70;;;22.80;60.10;;;;;;4922474;28;89270;-88
2023/10/22 02:31:05;;;;;;;1.38;1.00;;;22.90;60.10;;;;;;4939651;28;88679;-86
2023/10/22 02:33:31;;;;;;;1.45;0.90;;;22.90;60.00;;;;;;4959708;28;86741;-86
2023/10/22 02:35:57;;;;;;;1.83;1.00;;;22.80;60.10;;;;;;4941651;28;88250;-86
2023/10/22 02:38:25;;;;;;;1.33;0.85;;;22.80;60.10;;;;;;4939149;28;89962;-87
2023/10/22 02:40:51;;;;;;;1.15;0.73;;;22.80;60.00;;;;;;4956186;28;91102;-86
2023/10/22 02:43:17;;;;;;;1.67;0.90;;;22.80;60.00;;;;;;4939945;28;87208;-86
2023/10/22 02:45:50;;;;;;;1.38;0.93;;;22.80;60.20;;;;;;4956443;28;87747;-87
2023/10/22 02:48:16;;;;;;;0.95;0.70;;;22.80;60.10;;;;;;4960329;28;91869;-87
2023/10/22 02:50:42;;;;;;;1.42;0.80;;;22.80;60.10;;;;;;4923088;28;91981;-90
2023/10/22 02:53:08;;;;;;;1.98;1.02;;;22.80;60.20;;;;;;4940189;28;87096;-90
2023/10/22 02:56:24;;;;;;;1.70;0.90;;;22.80;60.20;;;;;;4944981;28;89182;-91
2023/10/22 02:58:50;;;;;;;0.75;0.60;;;22.80;60.20;;;;;;4941495;28;90197;-89
2023/10/22 03:01:29;;;;;;;1.15;0.90;;;22.80;60.20;;;;;;4921734;28;88830;-88
2023/10/22 03:03:54;;;;;;;1.67;1.00;;;22.80;60.10;;;;;;4932194;28;87166;-88
2023/10/22 03:06:20;;;;;;;1.13;0.70;;;22.80;60.30;;;;;;4927332;28;87543;-91
2023/10/22 03:08:45;;;;;;;1.05;0.70;;;22.80;60.10;;;;;;4939210;28;89923;-89
2023/10/22 03:11:18;;;;;;;1.60;0.90;;;22.80;60.20;;;;;;4922429;28;90216;-88
2023/10/22 03:13:45;;;;;;;0.82;0.77;;;22.80;60.30;;;;;;4938194;28;89238;-87
2023/10/22 03:16:15;;;;;;;1.42;0.90;;;22.70;60.20;;;;;;4938086;28;87992;-90
2023/10/22 03:18:43;;;;;;;1.15;0.77;;;22.80;60.20;;;;;;4921185;28;88610;-88
2023/10/22 03:21:20;;;;;;;0.93;0.68;;;22.80;60.30;;;;;;4936352;28;91379;-89
2023/10/22 03:23:47;;;;;;;0.85;0.57;;;22.80;60.10;;;;;;4917726;28;88953;-89
2023/10/22 03:26:16;;;;;;;0.88;0.65;;;22.70;60.00;;;;;;4919600;28;87941;-88
2023/10/22 03:28:43;;;;;;;1.42;0.88;;;22.70;60.00;;;;;;4920191;28;90243;-87
2023/10/22 03:31:12;;;;;;;1.27;0.90;;;22.70;60.10;;;;;;4920909;28;89580;-88
2023/10/22 03:33:37;;;;;;;1.25;0.80;;;22.70;60.20;;;;;;4922463;28;87906;-88
2023/10/22 03:36:04;;;;;;;1.20;0.85;;;22.70;60.10;;;;;;4922014;28;87169;-87
2023/10/22 03:38:30;;;;;;;1.85;1.00;;;22.70;60.10;;;;;;4914563;28;89793;-86
2023/10/22 03:40:58;;;;;;;1.75;0.90;;;22.70;60.20;;;;;;4916168;28;90473;-89
2023/10/22 03:43:28;;;;;;;0.95;0.75;;;22.70;60.10;;;;;;4919359;28;87540;-88
2023/10/22 03:45:55;;;;;;;0.85;0.80;;;22.70;60.30;;;;;;4921313;28;87836;-88
2023/10/22 03:48:21;;;;;;;2.55;0.82;;;22.70;60.20;;;;;;4919066;28;90074;-88
2023/10/22 03:50:47;;;;;;;1.58;0.93;;;22.70;60.20;;;;;;4934395;28;90613;-89
2023/10/22 03:53:12;;;;;;;2.22;0.93;;;22.70;60.30;;;;;;4927420;28;87498;-88
2023/10/22 03:55:38;;;;;;;2.05;0.93;;;22.70;60.30;;;;;;4934901;28;88684;-87
2023/10/22 03:58:04;;;;;;;2.00;1.17;;;22.70;60.30;;;;;;4922163;28;88885;-89
2023/10/22 04:00:30;;;;;;;2.05;0.90;;;22.70;60.20;;;;;;4933409;28;89685;-88
2023/10/22 04:02:56;;;;;;;0.90;0.80;;;22.70;60.20;;;;;;4918826;28;88291;-87
2023/10/22 04:05:23;;;;;;;0.88;0.60;;;22.60;60.10;;;;;;4932228;28;90173;-89
2023/10/22 04:07:49;;;;;;;1.30;0.77;;;22.70;60.70;;;;;;4915775;28;88616;-87
2023/10/22 04:10:15;;;;;;;1.73;0.90;;;22.60;60.30;;;;;;4916667;28;90287;-88
2023/10/22 04:12:41;;;;;;;1.50;0.80;;;22.60;60.30;;;;;;4915439;28;87305;-88
2023/10/22 04:15:08;;;;;;;2.00;1.15;;;22.60;60.20;;;;;;4912398;28;88415;-87
2023/10/22 04:17:33;;;;;;;1.33;0.88;;;22.60;60.30;;;;;;4935089;28;89750;-89
2023/10/22 04:19:59;;;;;;;0.77;0.65;;;22.60;60.40;;;;;;4917880;28;89276;-89
2023/10/22 04:22:26;;;;;;;1.60;0.95;;;22.60;60.10;;;;;;4919153;28;87476;-89
2023/10/22 04:24:52;;;;;;;1.17;0.73;;;22.60;60.30;;;;;;4919349;28;87857;-88
2023/10/22 04:27:18;;;;;;;1.88;0.70;;;22.60;60.20;;;;;;4918487;28;90110;-87
2023/10/22 04:29:46;;;;;;;1.42;0.80;;;22.60;60.20;;;;;;4935813;28;89841;-88
2023/10/22 04:32:16;;;;;;;0.63;0.63;;;22.60;60.10;;;;;;4935326;28;87675;-88
2023/10/22 04:34:42;;;;;;;1.77;0.90;;;22.60;60.20;;;;;;4920519;28;90179;-88
2023/10/22 04:37:09;;;;;;;1.63;0.93;;;22.60;60.30;;;;;;4921049;28;89778;-87
2023/10/22 04:39:36;;;;;;;1.17;0.52;;;22.60;60.40;;;;;;4934499;28;89172;-89
2023/10/22 04:42:02;;;;;;;1.02;0.77;;;22.60;60.40;;;;;;4922928;28;87439;-90
2023/10/22 04:44:27;;;;;;;0.77;0.70;;;22.60;60.70;;;;;;4917982;28;87863;-89
2023/10/22 04:46:53;;;;;;;0.77;0.50;;;22.60;60.40;;;;;;4916075;28;88978;-89
2023/10/22 04:49:19;;;;;;;0.70;0.60;;;22.60;60.20;;;;;;4921124;28;90936;-90
2023/10/22 04:51:44;;;;;;;1.98;1.13;;;22.60;60.20;;;;;;4916409;28;88560;-88
2023/10/22 04:54:10;;;;;;;0.52;0.50;;;22.60;60.20;;;;;;4917738;28;91070;-91
2023/10/22 04:56:38;;;;;;;1.08;0.75;;;22.60;60.30;;;;;;4922688;28;88705;-89
2023/10/22 04:59:04;;;;;;;1.35;0.82;;;22.60;60.30;;;;;;4937695;28;87555;-87
2023/10/22 05:01:30;;;;;;;1.48;0.70;;;22.60;60.40;;;;;;4916394;28;87639;-88
2023/10/22 05:03:56;;;;;;;1.85;0.73;;;22.60;60.30;;;;;;4916173;28;87019;-87
2023/10/22 05:06:21;;;;;;;1.67;0.73;;;22.60;60.40;;;;;;4918248;28;87887;-88
2023/10/22 05:08:47;;;;;;;1.42;0.80;;;22.60;60.30;;;;;;4920487;28;90021;-88
2023/10/22 05:11:17;;;;;;;0.80;0.60;;;22.50;60.30;;;;;;4917747;28;87712;-88
2023/10/22 05:13:46;;;;;;;1.15;0.70;;;22.50;60.40;;;;;;4917022;28;89004;-88
2023/10/22 05:16:12;;;;;;;1.48;0.90;;;22.50;60.40;;;;;;4929320;28;91481;-88
2023/10/22 05:18:38;;;;;;;0.80;0.73;;;22.50;60.50;;;;;;4916904;28;89838;-88
2023/10/22 05:21:05;;;;;;;1.08;0.98;;;22.50;60.20;;;;;;4917567;28;87448;-87
2023/10/22 05:23:40;;;;;;;0.77;0.60;;;22.50;60.30;;;;;;4919927;28;87646;-89
2023/10/22 05:26:14;;;;;;;0.85;0.68;;;22.50;60.50;;;;;;4915918;28;87483;-89
2023/10/22 05:28:40;;;;;;;0.57;0.50;;;22.50;60.40;;;;;;4934903;28;90331;-91
2023/10/22 05:31:35;;;;;;;1.10;0.93;;;22.50;60.40;;;;;;4935522;28;87352;-89
2023/10/22 05:34:01;;;;;;;0.90;0.65;;;22.50;60.50;;;;;;4918315;28;89493;-90
2023/10/22 05:36:27;;;;;;;0.57;0.57;;;22.50;60.40;;;;;;4931540;28;92114;-88
2023/10/22 05:38:53;;;;;;;0.68;0.63;;;22.50;60.50;;;;;;4931598;28;90001;-89
2023/10/22 05:41:28;;;;;;;0.80;0.70;;;22.50;60.40;;;;;;4935244;28;87906;-87
2023/10/22 05:44:01;;;;;;;0.70;0.50;;;22.50;60.30;;;;;;4916393;28;91356;-87
2023/10/22 05:46:34;;;;;;;1.30;1.00;;;22.50;60.20;;;;;;4934239;28;91959;-87
2023/10/22 05:49:01;;;;;;;0.85;0.50;;;22.50;60.40;;;;;;4922733;28;87642;-90
2023/10/22 05:51:26;;;;;;;1.27;0.70;;;22.50;60.20;;;;;;4936971;28;87793;-87
2023/10/22 05:53:52;;;;;;;0.88;0.60;;;22.40;60.30;;;;;;4919557;28;88623;-88
2023/10/22 05:56:18;;;;;;;2.65;0.98;;;22.50;61.40;;;;;;4934862;28;90439;-88
2023/10/22 05:58:44;;;;;;;1.10;0.80;;;22.40;60.30;;;;;;4935991;28;89767;-89
2023/10/22 06:01:13;;;;;;;4.40;1.05;;;22.50;60.40;;;;;;4917094;28;88123;-87
2023/10/22 06:03:38;;;;;;;1.02;0.75;;;22.50;60.60;;;;;;4926865;28;88101;-86
2023/10/22 06:06:04;;;;;;;1.60;0.95;;;22.40;60.60;;;;;;4936099;28;91363;-89
2023/10/22 06:08:30;;;;;;;0.95;0.63;;;22.40;60.50;;;;;;4934320;28;92399;-91
2023/10/22 06:10:55;;;;;;;1.23;0.70;;;22.40;60.50;;;;;;4921309;28;87776;-91
2023/10/22 06:13:21;;;;;;;5.97;0.80;;;22.40;60.30;;;;;;4927420;28;87586;-89
2023/10/22 06:15:47;;;;;;;1.55;0.82;;;22.50;60.30;;;;;;4936849;28;90192;-91
2023/10/22 06:18:13;;;;;;;0.77;0.63;;;22.50;60.30;;;;;;4919502;28;90076;-91
2023/10/22 06:20:39;;;;;;;1.50;0.60;;;22.50;59.90;;;;;;4924490;28;88062;-87
2023/10/22 06:23:05;;;;;;;0.52;0.50;;;22.50;59.90;;;;;;4921773;28;89493;-92
2023/10/22 06:25:32;;;;;;;2.92;0.80;;;22.50;60.20;;;;;;4917973;28;88882;-88
2023/10/22 06:28:01;;;;;;;0.90;0.70;;;22.60;60.00;;;;;;4919003;28;88405;-89
2023/10/22 06:30:28;;;;;;;1.08;0.80;;;22.60;60.20;;;;;;4940598;28;88585;-87
2023/10/22 06:32:58;;;;;;;2.28;0.80;;;22.60;60.00;;;;;;4903336;28;90859;-90
2023/10/22 06:35:28;;;;;;;1.58;0.80;;;22.60;60.00;;;;;;4922481;28;89366;-90
2023/10/22 06:37:54;;;;;;;0.98;0.68;;;22.60;59.90;;;;;;4920297;28;90018;-92
2023/10/22 06:40:21;;;;;;;2.10;0.50;;;22.60;59.90;;;;;;4923291;28;87393;-91
2023/10/22 06:42:48;;;;;;;2.92;0.90;;;22.60;59.90;;;;;;4918980;28;89926;-92
2023/10/22 06:45:14;;;;;;;3.22;0.82;;;22.60;59.70;;;;;;4918751;28;90578;-92
2023/10/22 06:47:40;;;;;;;1.48;0.95;;;22.60;59.80;;;;;;4923570;28;89517;-91
2023/10/22 06:50:13;;;;;;;1.65;0.90;;;22.60;59.70;;;;;;4938407;28;87967;-88
2023/10/22 06:52:42;;;;;;;1.10;0.70;;;22.60;59.80;;;;;;4921930;28;87840;-90
2023/10/22 06:55:11;;;;;;;3.40;1.07;;;22.60;59.70;;;;;;4919797;28;89037;-88
2023/10/22 06:57:38;;;;;;;1.45;0.73;;;22.60;59.80;;;;;;4923955;28;88781;-89
2023/10/22 07:00:04;;;;;;;0.70;0.50;;;22.60;59.80;;;;;;4936818;28;87968;-91
2023/10/22 07:02:32;;;;;;;3.92;0.57;;;22.60;59.60;;;;;;4925584;28;88177;-88
2023/10/22 07:04:58;;;;;;;2.47;0.90;;;22.60;59.80;;;;;;4923963;28;92096;-88
2023/10/22 07:07:24;;;;;;;3.25;0.95;;;22.60;59.80;;;;;;4922375;28;89207;-90
2023/10/22 07:09:50;;;;;;;0.77;0.57;;;22.60;59.80;;;;;;4932520;28;87081;-89
2023/10/22 07:12:16;;;;;;;2.08;0.70;;;22.60;59.70;;;;;;4927322;28;86719;-93
2023/10/22 07:14:42;;;;;;;1.35;0.73;;;22.60;59.90;;;;;;4934074;28;90261;-89
2023/10/22 07:17:09;;;;;;;1.92;0.75;;;22.60;59.80;;;;;;4919516;28;89439;-87
2023/10/22 07:19:36;;;;;;;2.15;1.00;;;22.60;59.70;;;;;;4916808;28;88413;-88
2023/10/22 07:22:02;;;;;;;3.20;1.00;;;22.60;59.80;;;;;;4932709;28;87488;-90
2023/10/22 07:24:28;;;;;;;3.35;1.13;;;22.60;59.90;;;;;;4935978;28;90256;-90
2023/10/22 07:26:54;;;;;;;2.65;0.80;;;22.60;59.90;;;;;;4919845;28;92042;-92
2023/10/22 07:29:20;;;;;;;3.00;1.30;;;22.60;59.90;;;;;;4924499;28;87771;-88
2023/10/22 07:31:48;;;;;;;4.63;1.33;;;22.60;60.10;;;;;;4922517;28;87337;-89
2023/10/22 07:34:14;;;;;;;3.47;1.08;;;22.70;60.20;;;;;;4923588;28;88769;-89
2023/10/22 07:36:40;;;;;;;3.45;1.20;;;22.70;60.40;;;;;;4920551;28;86745;-93
2023/10/22 07:39:07;;;;;;;7.40;2.42;;;22.60;60.10;;;;;;4926981;28;87428;-90
2023/10/22 07:41:33;;;;;;;5.80;1.63;;;22.70;59.70;;;;;;4922367;28;87618;-90
2023/10/22 07:44:02;;;;;;;4.72;1.80;;;22.70;59.90;;;;;;4925195;28;90944;-89
2023/10/22 07:46:27;;;;;;;5.55;1.58;;;22.70;60.00;;;;;;4925588;28;91383;-91
2023/10/22 07:48:53;;;;;;;6.95;2.17;;;22.70;60.10;;;;;;4921790;28;88313;-92
2023/10/22 07:51:21;;;;;;;6.03;2.22;;;22.70;60.70;;;;;;4924034;28;89141;-90
2023/10/22 07:53:47;;;;;;;10.00;2.47;;;22.70;60.50;;;;;;4928990;28;89902;-89
2023/10/22 07:56:17;;;;;;;7.82;1.88;;;22.70;60.60;;;;;;4926001;28;89600;-91
2023/10/22 07:58:43;;;;;;;6.20;2.22;;;22.60;60.80;;;;;;4943353;28;87897;-92
2023/10/22 08:01:09;;;;;;;8.82;1.90;;;22.60;60.80;;;;;;4928839;28;89171;-91
2023/10/22 08:03:37;;;;;;;4.80;1.55;;;22.70;60.90;;;;;;4948292;28;87997;-90
2023/10/22 08:06:04;;;;;;;9.23;2.53;;;22.70;61.40;;;;;;4947675;28;91388;-92
2023/10/22 08:42:19;;;;;;;4.57;1.92;;;22.70;58.60;;;;;;5739252;22;90605;-93
2023/10/22 10:38:38;;;;;;;26.10;8.98;;;22.80;61.10;;;;;;5779572;22;89378;-89
2023/10/22 10:41:04;;;;;;;29.70;9.07;;;22.90;60.90;;;;;;4964942;28;91610;-89
2023/10/22 10:44:08;;;;;;;25.95;8.98;;;22.90;61.40;;;;;;4974748;28;88510;-88
2023/10/22 10:46:34;;;;;;;29.83;8.77;;;22.90;61.30;;;;;;4968453;28;87704;-89
2023/10/22 10:49:00;;;;;;;24.67;7.78;;;22.90;61.20;;;;;;4963220;28;89162;-89
2023/10/22 10:51:27;;;;;;;25.65;7.40;;;22.90;61.00;;;;;;4965451;28;88974;-89
2023/10/22 10:54:07;;;;;;;21.23;7.80;;;23.00;61.00;;;;;;4968446;28;87649;-90
2023/10/22 10:56:59;;;;;;;22.80;7.78;;;22.90;60.60;;;;;;4965032;28;89285;-88
2023/10/22 10:59:33;;;;;;;25.20;8.15;;;23.00;60.70;;;;;;4957015;28;89021;-92
2023/10/22 11:02:06;;;;;;;24.30;8.10;;;23.00;60.60;;;;;;4963012;28;87624;-89
2023/10/22 11:04:32;;;;;;;22.48;7.90;;;23.00;60.80;;;;;;4963518;28;86945;-88
2023/10/22 11:06:58;;;;;;;25.70;8.52;;;23.10;60.70;;;;;;4981569;28;87435;-92
2023/10/22 11:09:24;;;;;;;28.13;7.95;;;23.10;60.70;;;;;;4963877;28;88934;-91
2023/10/22 11:12:03;;;;;;;23.83;6.88;;;23.10;60.90;;;;;;4981750;28;89791;-91
2023/10/22 11:14:31;;;;;;;22.13;8.23;;;23.10;60.50;;;;;;4965712;28;88207;-87
2023/10/22 11:16:58;;;;;;;18.60;6.27;;;23.10;60.90;;;;;;4966153;28;87021;-85
2023/10/22 11:19:25;;;;;;;18.30;6.00;;;23.20;61.10;;;;;;4961223;28;87766;-88
2023/10/22 11:22:12;;;;;;;23.58;6.75;;;23.20;60.00;;;;;;4940438;28;88802;-92
2023/10/22 11:24:38;;;;;;;22.75;6.60;;;23.20;60.30;;;;;;4941507;28;87651;-90
2023/10/22 11:27:05;;;;;;;23.02;7.07;;;23.20;60.30;;;;;;4959632;28;87975;-88
2023/10/22 11:29:47;;;;;;;20.40;7.95;;;23.20;60.70;;;;;;4965270;28;89908;-91
2023/10/22 11:32:18;;;;;;;13.63;6.13;;;23.20;60.60;;;;;;4967585;28;88427;-88
2023/10/22 11:34:51;;;;;;;17.67;5.65;;;23.20;60.70;;;;;;4978182;28;88773;-87
2023/10/22 11:37:36;;;;;;;20.77;6.75;;;23.20;61.00;;;;;;4962226;28;87700;-88
2023/10/22 11:40:22;;;;;;;21.42;7.47;;;23.10;60.70;;;;;;4963531;28;89801;-90
2023/10/22 11:42:47;;;;;;;17.08;6.40;;;23.20;61.00;;;;;;4958906;28;90788;-90
2023/10/22 11:45:13;;;;;;;21.85;6.80;;;23.10;61.10;;;;;;4954529;28;87461;-92
2023/10/22 11:47:39;;;;;;;16.45;5.60;;;23.10;61.20;;;;;;4964237;28;91860;-88
2023/10/22 11:50:06;;;;;;;18.45;5.30;;;23.10;61.00;;;;;;4955587;28;89240;-89
2023/10/22 11:52:37;;;;;;;19.10;5.85;;;23.10;61.10;;;;;;4906059;28;90648;-87
2023/10/22 11:55:09;;;;;;;22.63;6.25;;;23.20;60.70;;;;;;4896130;28;90664;-87
2023/10/22 11:57:39;;;;;;;20.98;5.90;;;23.20;60.50;;;;;;4955332;28;88595;-90
2023/10/22 12:00:11;;;;;;;15.90;5.65;;;23.30;60.30;;;;;;4951236;28;88834;-90
2023/10/22 12:02:38;;;;;;;13.95;5.53;;;23.30;60.40;;;;;;4962361;28;88565;-89
2023/10/22 12:05:05;;;;;;;13.32;4.90;;;23.30;60.20;;;;;;4952630;28;87579;-88
2023/10/22 12:07:31;;;;;;;17.23;5.70;;;23.30;60.20;;;;;;4956216;28;88470;-88
2023/10/22 12:09:57;;;;;;;18.20;6.13;;;23.30;60.20;;;;;;4961638;28;91815;-90
2023/10/22 12:12:24;;;;;;;16.70;5.95;;;23.40;60.40;;;;;;4964029;28;89636;-92
2023/10/22 12:14:49;;;;;;;11.30;4.35;;;23.40;60.40;;;;;;4949486;28;88113;-88
2023/10/22 12:17:36;;;;;;;14.88;4.60;;;23.40;60.50;;;;;;4960697;28;88695;-89
2023/10/22 12:20:02;;;;;;;12.23;4.72;;;23.40;60.10;;;;;;4960844;28;89085;-88
2023/10/22 12:22:27;;;;;;;14.90;5.25;;;23.40;60.60;;;;;;4963265;28;89640;-90
2023/10/22 12:24:56;;;;;;;14.48;4.82;;;23.40;60.20;;;;;;4948010;28;89423;-90
2023/10/22 12:27:22;;;;;;;12.40;4.80;;;23.40;60.30;;;;;;4959748;28;89522;-87
2023/10/22 12:29:48;;;;;;;11.88;4.82;;;23.40;60.60;;;;;;4960012;28;92044;-87
2023/10/22 12:32:34;;;;;;;12.43;5.05;;;23.40;61.10;;;;;;4961856;28;89976;-87
2023/10/22 12:35:00;;;;;;;15.90;4.82;;;23.40;60.40;;;;;;4980772;28;87456;-89
2023/10/22 12:37:28;;;;;;;12.82;5.28;;;23.40;60.30;;;;;;4961623;28;88097;-88
2023/10/22 12:39:56;;;;;;;15.43;5.10;;;23.40;61.30;;;;;;4963884;28;89063;-89
2023/10/22 12:42:24;;;;;;;14.65;5.95;;;23.40;60.60;;;;;;4962978;28;90460;-91
2023/10/22 12:44:49;;;;;;;15.82;4.43;;;23.40;60.20;;;;;;4965118;28;88251;-90
2023/10/22 12:47:15;;;;;;;9.20;3.75;;;23.50;60.10;;;;;;4960831;28;88693;-88
2023/10/22 12:49:42;;;;;;;12.73;4.80;;;23.50;60.10;;;;;;4964460;28;91582;-89
2023/10/22 12:52:17;;;;;;;14.45;4.82;;;23.50;60.00;;;;;;4964087;28;92278;-87
2023/10/22 12:54:44;;;;;;;14.48;4.90;;;23.50;60.40;;;;;;4963091;28;88928;-89
2023/10/22 12:57:14;;;;;;;13.43;4.25;;;23.60;60.30;;;;;;4961083;28;89009;-88
2023/10/22 12:59:40;;;;;;;10.10;3.50;;;23.60;60.00;;;;;;4978021;28;90915;-90
2023/10/22 13:02:09;;;;;;;13.90;4.50;;;23.60;60.00;;;;;;4961399;28;89733;-88
2023/10/22 13:04:35;;;;;;;12.05;5.47;;;23.70;60.10;;;;;;4963026;28;87733;-90
2023/10/22 13:07:01;;;;;;;8.82;3.90;;;23.70;60.10;;;;;;4961715;28;87592;-88
2023/10/22 13:09:27;;;;;;;10.00;3.97;;;23.70;60.20;;;;;;4958119;28;88938;-89
2023/10/22 13:11:53;;;;;;;14.90;5.10;;;23.70;60.10;;;;;;4962313;28;88327;-87
2023/10/22 13:14:19;;;;;;;10.65;4.10;;;23.70;59.90;;;;;;4959865;28;88304;-87
2023/10/22 13:16:45;;;;;;;16.10;5.25;;;23.70;60.00;;;;;;4961713;28;88145;-88
2023/10/22 13:19:11;;;;;;;13.45;4.75;;;23.70;60.00;;;;;;4988133;28;91895;-90
2023/10/22 13:21:37;;;;;;;10.90;4.50;;;23.70;60.10;;;;;;4957159;28;89887;-91
2023/10/22 13:24:04;;;;;;;15.75;5.63;;;23.70;60.00;;;;;;4962804;28;87806;-92
2023/10/22 13:26:33;;;;;;;20.38;6.43;;;23.70;60.70;;;;;;4959124;28;88946;-88
2023/10/22 13:29:05;;;;;;;17.83;5.93;;;23.70;60.00;;;;;;4959974;28;89453;-87
2023/10/22 13:31:39;;;;;;;18.08;5.55;;;23.70;60.10;;;;;;4960455;28;89033;-86
2023/10/22 13:34:05;;;;;;;17.30;6.20;;;23.70;60.30;;;;;;4960540;28;87612;-88
2023/10/22 13:36:33;;;;;;;23.75;7.28;;;23.80;60.40;;;;;;4983574;28;88176;-86
2023/10/22 13:39:00;;;;;;;22.52;8.85;;;23.70;60.20;;;;;;4969008;28;90368;-91
2023/10/22 13:41:26;;;;;;;25.10;7.47;;;23.70;60.50;;;;;;4967301;28;90925;-91
2023/10/22 13:43:52;;;;;;;17.88;6.75;;;23.70;60.20;;;;;;4966356;28;88688;-90
2023/10/22 13:46:17;;;;;;;23.85;8.23;;;23.70;60.50;;;;;;4962500;28;89089;-88
2023/10/22 13:48:43;;;;;;;17.27;5.78;;;23.70;60.40;;;;;;4960021;28;89398;-90
2023/10/22 13:51:09;;;;;;;21.58;7.10;;;23.70;60.30;;;;;;4959394;28;89596;-88
2023/10/22 13:53:34;;;;;;;26.13;8.10;;;23.70;60.00;;;;;;4958680;28;87854;-86
2023/10/22 13:56:00;;;;;;;16.92;6.15;;;23.70;60.20;;;;;;4962412;28;87597;-87
2023/10/22 13:58:28;;;;;;;18.50;6.80;;;23.70;60.10;;;;;;4963335;28;92273;-93
2023/10/22 14:00:54;;;;;;;15.85;5.80;;;23.80;60.20;;;;;;4970921;28;90865;-89
2023/10/22 14:03:20;;;;;;;15.15;5.80;;;23.80;59.80;;;;;;4962617;28;88598;-92
2023/10/22 14:05:49;;;;;;;24.90;7.82;;;23.80;60.00;;;;;;4970563;28;89291;-90
2023/10/22 14:08:32;;;;;;;20.98;6.20;;;23.80;60.00;;;;;;4987458;28;90153;-92
2023/10/22 14:10:58;;;;;;;16.02;6.47;;;23.80;60.30;;;;;;4967447;28;89625;-91
2023/10/22 14:13:26;;;;;;;21.02;6.20;;;23.90;59.80;;;;;;4968150;28;87782;-93
2023/10/22 14:16:05;;;;;;;17.92;5.95;;;23.90;59.80;;;;;;4968874;28;90216;-91
2023/10/22 14:18:30;;;;;;;27.80;6.90;;;23.90;59.80;;;;;;4967198;28;89445;-88
2023/10/22 14:20:56;;;;;;;22.38;6.85;;;23.90;60.10;;;;;;4968258;28;89695;-91
2023/10/22 14:23:30;;;;;;;19.52;7.75;;;24.00;60.20;;;;;;4958670;28;87710;-89
2023/10/22 14:25:57;;;;;;;19.23;6.07;;;23.90;60.40;;;;;;4973526;28;88527;-90
2023/10/22 14:28:22;;;;;;;26.30;7.57;;;23.90;60.30;;;;;;4974000;28;90852;-93
2023/10/22 14:30:48;;;;;;;17.15;6.18;;;23.90;60.30;;;;;;4977284;28;90597;-91
2023/10/22 14:33:14;;;;;;;15.60;5.50;;;24.00;60.50;;;;;;4967625;28;87531;-93
2023/10/22 14:35:45;;;;;;;27.48;7.40;;;24.00;60.90;;;;;;4969541;28;90549;-90
2023/10/22 14:38:10;;;;;;;16.85;6.32;;;24.00;60.70;;;;;;4989818;28;89936;-89
2023/10/22 14:40:40;;;;;;;16.00;6.22;;;24.00;61.10;;;;;;4967529;28;88945;-90
2023/10/22 14:43:05;;;;;;;19.48;6.40;;;24.00;61.40;;;;;;4967514;28;87257;-88
2023/10/22 14:45:31;;;;;;;16.25;6.32;;;24.00;61.40;;;;;;4967398;28;89466;-88
2023/10/22 14:47:57;;;;;;;18.67;6.30;;;24.00;60.70;;;;;;4982663;28;90260;-88
2023/10/22 14:50:23;;;;;;;17.10;5.15;;;24.00;61.30;;;;;;4964507;28;89969;-91
2023/10/22 14:52:48;;;;;;;15.43;5.60;;;24.00;60.60;;;;;;4962931;28;88396;-90
2023/10/22 14:55:14;;;;;;;19.80;5.93;;;24.00;61.10;;;;;;4968028;28;88388;-90
2023/10/22 14:57:40;;;;;;;15.43;5.45;;;24.00;61.40;;;;;;4966927;28;89124;-88
2023/10/22 15:00:09;;;;;;;20.17;5.88;;;24.00;60.70;;;;;;4952218;28;89410;-88
2023/10/22 15:02:36;;;;;;;16.17;6.80;;;24.00;61.40;;;;;;4968586;28;87279;-90
2023/10/22 15:05:02;;;;;;;15.30;5.57;;;24.00;61.60;;;;;;4964182;28;89938;-92
2023/10/22 15:07:29;;;;;;;16.33;6.13;;;24.00;61.70;;;;;;4977410;28;92044;-90
2023/10/22 15:09:58;;;;;;;15.40;5.40;;;24.00;61.70;;;;;;4965574;28;88781;-89
2023/10/22 15:12:23;;;;;;;14.70;5.40;;;24.00;62.10;;;;;;4968731;28;87050;-93
2023/10/22 15:14:49;;;;;;;14.80;5.60;;;24.00;61.80;;;;;;4966748;28;87515;-91